createdAt,value
2018-02-25T00:00:05.532Z,49.32
2018-02-25T00:02:33.135Z,49.55
2018-02-25T00:05:00.727Z,49.82
2018-02-25T00:07:28.289Z,49.92
2018-02-25T00:09:55.846Z,50.11
2018-02-25T00:12:23.376Z,50.17
2018-02-25T00:14:50.925Z,50.20
2018-02-25T00:17:18.505Z,50.25
2018-02-25T00:19:46.389Z,50.39
2018-02-25T00:22:31.970Z,50.37
2018-02-25T00:24:59.503Z,50.64
2018-02-25T00:27:27.093Z,50.95
2018-02-25T00:29:54.714Z,50.80
2018-02-25T00:32:22.292Z,51.00
2018-02-25T00:34:49.863Z,50.47
2018-02-25T00:37:17.425Z,49.65
2018-02-25T00:39:45.120Z,50.04
2018-02-25T00:42:12.741Z,50.15
2018-02-25T00:44:40.366Z,50.11
2018-02-25T00:47:07.894Z,49.68
2018-02-25T00:49:35.485Z,49.64
2018-02-25T00:52:03.091Z,49.75
2018-02-25T00:54:30.650Z,49.76
2018-02-25T00:56:58.200Z,49.78
2018-02-25T00:59:26.100Z,48.93
2018-02-25T01:01:53.628Z,49.14
2018-02-25T01:04:21.189Z,49.53
2018-02-25T01:06:48.757Z,49.47
2018-02-25T01:09:16.644Z,49.31
2018-02-25T01:11:44.181Z,49.43
2018-02-25T01:14:11.883Z,49.71
2018-02-25T01:16:39.396Z,49.87
2018-02-25T01:19:06.960Z,50.05
2018-02-25T01:21:34.550Z,49.83
2018-02-25T01:24:02.109Z,50.35
2018-02-25T01:26:29.638Z,50.29
2018-02-25T01:28:57.224Z,50.09
2018-02-25T01:31:24.752Z,49.95
2018-02-25T01:33:52.343Z,50.09
2018-02-25T01:36:19.934Z,50.57
2018-02-25T01:38:47.465Z,51.07
2018-02-25T01:41:15.108Z,50.47
2018-02-25T01:43:42.658Z,50.45
2018-02-25T01:46:10.238Z,50.83
2018-02-25T01:48:37.822Z,50.53
2018-02-25T01:51:05.427Z,50.76
2018-02-25T01:53:32.956Z,50.81
2018-02-25T01:56:00.536Z,50.59
2018-02-25T01:58:28.179Z,50.78
2018-02-25T02:00:55.739Z,50.80
2018-02-25T02:03:23.299Z,50.96
2018-02-25T02:05:50.863Z,51.12
2018-02-25T02:08:18.380Z,51.38
2018-02-25T02:10:45.901Z,51.37
2018-02-25T02:13:13.464Z,51.63
2018-02-25T02:15:41.304Z,51.98
2018-02-25T02:18:08.868Z,51.85
2018-02-25T02:20:36.516Z,51.73
2018-02-25T02:23:04.066Z,52.01
2018-02-25T02:25:31.598Z,52.12
2018-02-25T02:27:59.159Z,51.75
2018-02-25T02:30:26.982Z,51.91
2018-02-25T02:32:54.841Z,51.92
2018-02-25T02:37:56.613Z,52.49
2018-02-25T02:40:24.193Z,53.00
2018-02-25T02:42:51.731Z,53.12
2018-02-25T02:45:19.270Z,53.11
2018-02-25T02:47:46.842Z,52.65
2018-02-25T02:50:14.358Z,52.62
2018-02-25T02:52:41.893Z,52.71
2018-02-25T02:55:09.482Z,53.08
2018-02-25T02:57:37.314Z,53.08
2018-02-25T03:00:04.870Z,53.01
2018-02-25T03:02:32.542Z,53.60
2018-02-25T03:05:00.071Z,53.84
2018-02-25T03:07:27.611Z,54.10
2018-02-25T03:09:55.153Z,54.21
2018-02-25T03:12:22.751Z,54.29
2018-02-25T03:14:50.302Z,54.40
2018-02-25T03:17:17.919Z,54.34
2018-02-25T03:19:45.483Z,54.60
2018-02-25T03:22:13.008Z,54.55
2018-02-25T03:24:40.569Z,54.77
2018-02-25T03:27:08.343Z,54.77
2018-02-25T03:29:35.888Z,54.78
2018-02-25T03:32:03.447Z,55.02
2018-02-25T03:34:31.330Z,54.97
2018-02-25T03:36:58.879Z,55.13
2018-02-25T03:39:26.697Z,54.99
2018-02-25T03:41:54.230Z,55.00
2018-02-25T03:44:21.751Z,55.11
2018-02-25T03:46:49.305Z,55.22
2018-02-25T03:49:16.838Z,55.30
2018-02-25T03:51:44.370Z,55.26
2018-02-25T03:54:12.221Z,55.46
2018-02-25T03:56:39.766Z,55.56
2018-02-25T03:59:07.301Z,55.54
2018-02-25T04:01:34.931Z,55.80
2018-02-25T04:04:02.522Z,56.56
2018-02-25T04:06:30.039Z,56.48
2018-02-25T04:08:57.698Z,56.71
2018-02-25T04:11:25.223Z,56.93
2018-02-25T04:13:52.752Z,57.08
2018-02-25T04:16:20.310Z,57.15
2018-02-25T04:18:47.827Z,57.23
2018-02-25T04:21:15.351Z,57.24
2018-02-25T04:23:42.948Z,57.44
2018-02-25T04:26:10.478Z,57.65
2018-02-25T04:28:38.014Z,57.56
2018-02-25T04:31:05.584Z,57.50
2018-02-25T04:33:33.410Z,57.55
2018-02-25T04:36:00.970Z,57.60
2018-02-25T04:38:28.524Z,57.51
2018-02-25T04:40:56.086Z,57.59
2018-02-25T04:43:23.610Z,57.30
2018-02-25T04:45:51.247Z,57.17
2018-02-25T04:48:19.071Z,57.24
2018-02-25T04:50:46.637Z,57.23
2018-02-25T04:53:14.245Z,57.32
2018-02-25T04:55:41.794Z,57.69
2018-02-25T04:58:10.106Z,57.75
2018-02-25T05:00:37.737Z,57.59
2018-02-25T05:03:05.574Z,57.30
2018-02-25T05:05:33.101Z,57.45
2018-02-25T05:08:00.669Z,57.82
2018-02-25T05:10:28.454Z,57.87
2018-02-25T05:12:56.314Z,57.55
2018-02-25T05:15:24.186Z,57.71
2018-02-25T05:17:51.710Z,57.51
2018-02-25T05:20:19.512Z,57.45
2018-02-25T05:22:47.101Z,57.70
2018-02-25T05:25:14.651Z,58.03
2018-02-25T05:27:42.196Z,57.78
2018-02-25T05:30:09.775Z,57.97
2018-02-25T05:32:37.360Z,58.05
2018-02-25T05:35:04.930Z,58.01
2018-02-25T05:37:32.742Z,58.34
2018-02-25T05:40:00.260Z,58.39
2018-02-25T05:42:27.789Z,58.45
2018-02-25T05:44:55.342Z,58.63
2018-02-25T05:47:23.195Z,58.81
2018-02-25T05:49:51.061Z,58.49
2018-02-25T05:52:18.688Z,58.53
2018-02-25T05:54:46.220Z,59.11
2018-02-25T05:57:13.746Z,59.19
2018-02-25T05:59:41.338Z,59.44
2018-02-25T06:02:08.888Z,59.50
2018-02-25T06:04:36.427Z,59.27
2018-02-25T06:07:04.002Z,59.62
2018-02-25T06:09:31.853Z,59.78
2018-02-25T06:11:59.374Z,59.74
2018-02-25T06:14:27.295Z,59.86
2018-02-25T06:16:54.814Z,59.88
2018-02-25T06:19:22.343Z,60.03
2018-02-25T06:21:49.895Z,60.12
2018-02-25T06:24:17.461Z,60.32
2018-02-25T06:26:45.037Z,60.32
2018-02-25T06:29:12.852Z,60.40
2018-02-25T06:31:40.497Z,60.45
2018-02-25T06:34:08.288Z,60.54
2018-02-25T06:36:35.838Z,59.99
2018-02-25T06:39:03.408Z,59.95
2018-02-25T06:41:31.266Z,59.68
2018-02-25T06:43:58.848Z,59.96
2018-02-25T06:46:26.361Z,59.99
2018-02-25T06:48:54.155Z,59.68
2018-02-25T06:51:21.714Z,60.05
2018-02-25T06:53:49.258Z,59.70
2018-02-25T06:56:16.785Z,59.81
2018-02-25T06:58:44.349Z,59.68
2018-02-25T07:01:11.893Z,59.19
2018-02-25T07:03:39.485Z,59.07
2018-02-25T07:06:07.308Z,59.19
2018-02-25T07:08:34.834Z,59.01
2018-02-25T07:11:02.373Z,58.25
2018-02-25T07:13:29.980Z,57.63
2018-02-25T07:15:57.534Z,57.40
2018-02-25T07:18:25.072Z,57.75
2018-02-25T07:20:53.065Z,57.88
2018-02-25T07:23:20.670Z,57.67
2018-02-25T07:25:48.498Z,57.71
2018-02-25T07:28:16.564Z,57.48
2018-02-25T07:30:44.090Z,57.21
2018-02-25T07:33:11.630Z,57.08
2018-02-25T07:35:39.220Z,56.59
2018-02-25T07:38:06.843Z,57.04
2018-02-25T07:40:34.452Z,55.95
2018-02-25T07:43:02.310Z,55.28
2018-02-25T07:45:30.997Z,54.51
2018-02-25T07:48:00.886Z,54.43
2018-02-25T07:50:29.184Z,52.94
2018-02-25T07:52:57.806Z,52.45
2018-02-25T07:55:25.491Z,52.84
2018-02-25T07:57:53.331Z,51.08
2018-02-25T08:00:20.852Z,50.90
2018-02-25T08:02:48.382Z,51.04
2018-02-25T08:05:15.986Z,51.14
2018-02-25T08:07:43.570Z,49.87
2018-02-25T08:10:11.175Z,49.84
2018-02-25T08:12:38.736Z,49.13
2018-02-25T08:15:06.567Z,49.47
2018-02-25T08:17:34.587Z,48.53
2018-02-25T08:20:02.140Z,47.94
2018-02-25T08:22:30.077Z,48.18
2018-02-25T08:24:57.633Z,48.21
2018-02-25T08:27:25.195Z,48.48
2018-02-25T08:29:52.714Z,47.65
2018-02-25T08:32:20.284Z,47.14
2018-02-25T08:34:47.906Z,47.29
2018-02-25T08:37:15.497Z,47.36
2018-02-25T08:39:43.304Z,46.95
2018-02-25T08:42:10.927Z,47.14
2018-02-25T08:44:38.907Z,47.28
2018-02-25T08:47:06.462Z,47.26
2018-02-25T08:49:34.047Z,47.28
2018-02-25T08:52:01.610Z,47.34
2018-02-25T08:54:29.173Z,47.27
2018-02-25T08:56:56.734Z,46.91
2018-02-25T08:59:24.601Z,47.06
2018-02-25T09:01:52.148Z,46.71
2018-02-25T09:04:19.758Z,46.96
2018-02-25T09:06:47.306Z,47.21
2018-02-25T09:09:14.891Z,47.53
2018-02-25T09:11:42.480Z,47.17
2018-02-25T09:14:10.024Z,46.93
2018-02-25T09:16:38.072Z,46.49
2018-02-25T09:19:05.677Z,45.92
2018-02-25T09:21:33.240Z,44.79
2018-02-25T09:24:00.808Z,44.03
2018-02-25T09:26:28.428Z,44.46
2018-02-25T09:28:55.970Z,44.08
2018-02-25T09:31:23.504Z,44.09
2018-02-25T09:33:51.166Z,43.55
2018-02-25T09:36:18.744Z,42.53
2018-02-25T09:38:46.310Z,41.83
2018-02-25T09:41:13.881Z,41.94
2018-02-25T09:43:41.434Z,41.71
2018-02-25T09:46:08.983Z,41.55
2018-02-25T09:48:36.571Z,41.55
2018-02-25T09:51:04.127Z,40.64
2018-02-25T09:53:31.720Z,40.96
2018-02-25T09:55:59.347Z,41.19
2018-02-25T09:58:26.902Z,40.78
2018-02-25T10:00:56.181Z,40.31
2018-02-25T10:03:23.759Z,41.01
2018-02-25T10:05:51.410Z,41.37
2018-02-25T10:08:18.944Z,41.47
2018-02-25T10:10:46.575Z,40.83
2018-02-25T10:13:14.136Z,40.19
2018-02-25T10:15:41.697Z,39.62
2018-02-25T10:18:09.301Z,39.51
2018-02-25T10:20:37.150Z,39.33
2018-02-25T10:23:04.710Z,39.56
2018-02-25T10:25:32.268Z,40.18
2018-02-25T10:27:59.804Z,38.95
2018-02-25T10:30:27.378Z,39.40
2018-02-25T10:32:55.027Z,38.94
2018-02-25T10:35:22.580Z,39.53
2018-02-25T10:37:50.156Z,39.48
2018-02-25T10:40:17.799Z,39.16
2018-02-25T10:42:45.364Z,38.93
2018-02-25T10:45:12.890Z,38.60
2018-02-25T10:47:40.598Z,38.30
2018-02-25T10:50:10.054Z,36.81
2018-02-25T10:52:37.567Z,34.50
2018-02-25T10:55:05.198Z,33.34
2018-02-25T10:57:33.040Z,32.02
2018-02-25T11:00:00.581Z,30.74
2018-02-25T11:02:28.242Z,30.15
2018-02-25T11:04:55.792Z,29.31
2018-02-25T11:07:23.590Z,28.51
2018-02-25T11:09:51.195Z,28.04
2018-02-25T11:12:18.774Z,27.83
2018-02-25T11:14:46.323Z,27.74
2018-02-25T11:17:13.894Z,27.79
2018-02-25T11:19:41.554Z,27.26
2018-02-25T11:22:09.118Z,24.78
2018-02-25T11:24:37.026Z,23.24
2018-02-25T11:27:04.573Z,22.46
2018-02-25T11:29:32.200Z,21.42
2018-02-25T11:31:59.804Z,21.39
2018-02-25T11:34:27.399Z,21.90
2018-02-25T11:36:54.917Z,22.78
2018-02-25T11:39:22.471Z,23.43
2018-02-25T11:41:50.655Z,22.68
2018-02-25T11:44:18.190Z,23.04
2018-02-25T11:46:45.758Z,23.03
2018-02-25T11:49:13.358Z,23.52
2018-02-25T11:51:41.242Z,24.06
2018-02-25T11:54:08.802Z,24.59
2018-02-25T11:56:36.314Z,23.72
2018-02-25T11:59:04.107Z,24.79
2018-02-25T12:01:31.784Z,25.90
2018-02-25T12:04:00.218Z,26.30
2018-02-25T12:06:27.832Z,26.38
2018-02-25T12:08:55.419Z,26.45
2018-02-25T12:11:23.013Z,26.83
2018-02-25T12:13:50.747Z,28.71
2018-02-25T12:16:18.346Z,30.29
2018-02-25T12:18:46.151Z,30.03
2018-02-25T12:21:13.666Z,29.94
2018-02-25T12:23:41.219Z,30.39
2018-02-25T12:26:08.791Z,31.80
2018-02-25T12:28:36.704Z,31.97
2018-02-25T12:31:04.361Z,31.32
2018-02-25T12:33:31.919Z,31.48
2018-02-25T12:35:59.538Z,31.44
2018-02-25T12:38:27.145Z,32.14
2018-02-25T12:40:54.703Z,33.12
2018-02-25T12:43:22.405Z,33.43
2018-02-25T12:45:50.035Z,33.79
2018-02-25T12:48:17.917Z,34.17
2018-02-25T12:50:45.487Z,32.99
2018-02-25T12:53:13.227Z,32.75
2018-02-25T12:55:40.773Z,32.65
2018-02-25T12:58:08.326Z,32.31
2018-02-25T13:00:35.919Z,32.76
2018-02-25T13:03:03.563Z,32.38
2018-02-25T13:05:31.120Z,33.33
2018-02-25T13:10:54.992Z,33.76
2018-02-25T13:13:22.618Z,33.86
2018-02-25T13:15:50.237Z,34.07
2018-02-25T13:18:17.786Z,34.68
2018-02-25T13:20:45.386Z,35.13
2018-02-25T13:23:13.059Z,35.65
2018-02-25T13:25:40.612Z,35.06
2018-02-25T13:28:08.177Z,35.30
2018-02-25T13:30:35.692Z,36.07
2018-02-25T13:33:03.307Z,36.30
2018-02-25T13:35:30.968Z,36.30
2018-02-25T13:37:58.520Z,35.94
2018-02-25T13:40:26.046Z,36.29
2018-02-25T13:42:53.610Z,36.68
2018-02-25T13:45:21.138Z,36.56
2018-02-25T13:47:48.813Z,36.41
2018-02-25T13:50:16.603Z,36.34
2018-02-25T13:52:44.562Z,36.81
2018-02-25T13:55:12.080Z,36.82
2018-02-25T13:57:39.675Z,36.51
2018-02-25T14:00:07.199Z,36.71
2018-02-25T14:02:34.724Z,36.84
2018-02-25T14:05:02.288Z,36.08
2018-02-25T14:07:29.827Z,35.57
2018-02-25T14:09:57.363Z,36.00
2018-02-25T14:12:24.970Z,35.88
2018-02-25T14:14:52.486Z,35.90
2018-02-25T14:17:20.129Z,36.01
2018-02-25T14:19:47.702Z,36.35
2018-02-25T14:22:15.243Z,36.54
2018-02-25T14:24:42.771Z,36.48
2018-02-25T14:27:11.510Z,36.54
2018-02-25T14:29:39.048Z,36.03
2018-02-25T14:32:06.586Z,36.38
2018-02-25T14:34:36.174Z,35.89
2018-02-25T14:37:03.975Z,34.79
2018-02-25T14:39:31.543Z,34.27
2018-02-25T14:41:59.128Z,32.16
2018-02-25T14:44:26.655Z,30.37
2018-02-25T14:46:54.352Z,30.60
2018-02-25T14:49:21.931Z,30.26
2018-02-25T14:51:49.513Z,30.08
2018-02-25T14:54:17.094Z,30.80
2018-02-25T14:56:44.930Z,32.72
2018-02-25T14:59:12.800Z,33.91
2018-02-25T15:01:40.322Z,34.59
2018-02-25T15:04:07.887Z,35.43
2018-02-25T15:06:35.398Z,36.32
2018-02-25T15:09:02.947Z,37.16
2018-02-25T15:11:30.515Z,38.08
2018-02-25T15:13:58.467Z,38.65
2018-02-25T15:16:25.978Z,38.78
2018-02-25T15:18:54.038Z,38.79
2018-02-25T15:21:21.621Z,38.90
2018-02-25T15:23:49.446Z,39.23
2018-02-25T15:26:16.991Z,39.54
2018-02-25T15:28:44.554Z,39.90
2018-02-25T15:31:12.159Z,40.02
2018-02-25T15:33:39.802Z,40.84
2018-02-25T15:36:07.638Z,41.16
2018-02-25T15:38:35.516Z,41.44
2018-02-25T15:41:03.103Z,41.52
2018-02-25T15:43:30.630Z,41.89
2018-02-25T15:45:58.160Z,41.81
2018-02-25T15:48:25.728Z,41.98
2018-02-25T15:50:53.269Z,41.94
2018-02-25T15:53:21.271Z,42.01
2018-02-25T15:55:49.929Z,42.46
2018-02-25T15:58:17.453Z,42.33
2018-02-25T16:00:44.986Z,42.48
2018-02-25T16:03:12.545Z,43.02
2018-02-25T16:05:40.073Z,43.12
2018-02-25T16:08:09.181Z,43.24
2018-02-25T16:10:36.743Z,43.33
2018-02-25T16:13:04.265Z,43.05
2018-02-25T16:15:31.809Z,43.21
2018-02-25T16:17:59.395Z,43.31
2018-02-25T16:20:26.934Z,43.54
2018-02-25T16:22:55.496Z,43.69
2018-02-25T16:25:23.144Z,43.37
2018-02-25T16:27:50.706Z,43.57
2018-02-25T16:30:18.483Z,43.63
2018-02-25T16:32:46.036Z,44.03
2018-02-25T16:35:13.759Z,44.29
2018-02-25T16:37:41.292Z,44.55
2018-02-25T16:40:08.892Z,44.44
2018-02-25T16:42:36.513Z,44.60
2018-02-25T16:45:04.173Z,44.67
2018-02-25T16:47:32.020Z,44.86
2018-02-25T16:49:59.595Z,45.04
2018-02-25T16:52:27.178Z,45.01
2018-02-25T16:54:54.729Z,45.20
2018-02-25T16:57:22.459Z,45.11
2018-02-25T16:59:50.002Z,45.13
2018-02-25T17:02:17.917Z,45.38
2018-02-25T17:04:45.504Z,45.41
2018-02-25T17:07:13.035Z,45.76
2018-02-25T17:09:40.690Z,45.69
2018-02-25T17:12:08.267Z,46.01
2018-02-25T17:14:35.805Z,46.15
2018-02-25T17:17:03.414Z,45.92
2018-02-25T17:19:31.141Z,46.08
2018-02-25T17:21:58.878Z,46.32
2018-02-25T17:24:26.481Z,46.59
2018-02-25T17:26:54.029Z,46.53
2018-02-25T17:29:21.566Z,46.35
2018-02-25T17:31:49.155Z,46.61
2018-02-25T17:34:16.783Z,46.90
2018-02-25T17:36:44.346Z,46.89
2018-02-25T17:39:12.235Z,46.90
2018-02-25T17:41:39.808Z,46.83
2018-02-25T17:44:07.866Z,46.80
2018-02-25T17:46:35.422Z,46.94
2018-02-25T17:49:04.759Z,47.11
2018-02-25T17:51:32.586Z,47.14
2018-02-25T17:54:00.153Z,47.35
2018-02-25T17:56:27.688Z,47.37
2018-02-25T17:58:55.224Z,47.14
2018-02-25T18:01:22.810Z,47.42
2018-02-25T18:03:50.452Z,47.30
2018-02-25T18:06:18.005Z,47.47
2018-02-25T18:08:45.579Z,47.49
2018-02-25T18:11:13.093Z,47.69
2018-02-25T18:13:40.668Z,47.88
2018-02-25T18:16:08.235Z,47.83
2018-02-25T18:18:35.883Z,48.05
2018-02-25T18:21:03.533Z,47.88
2018-02-25T18:23:31.125Z,48.32
2018-02-25T18:28:32.719Z,48.30
2018-02-25T18:31:01.349Z,48.21
2018-02-25T18:33:29.176Z,48.32
2018-02-25T18:35:56.987Z,48.30
2018-02-25T18:38:24.552Z,48.70
2018-02-25T18:40:52.149Z,48.95
2018-02-25T18:43:19.823Z,49.42
2018-02-25T18:45:47.398Z,49.34
2018-02-25T18:48:14.990Z,49.53
2018-02-25T18:50:42.566Z,49.11
2018-02-25T18:53:10.245Z,49.52
2018-02-25T18:55:37.987Z,50.00
2018-02-25T18:58:06.566Z,49.95
2018-02-25T19:00:34.121Z,50.27
2018-02-25T19:03:01.692Z,50.55
2018-02-25T19:05:29.255Z,50.47
2018-02-25T19:07:56.834Z,50.55
2018-02-25T19:10:24.399Z,50.60
2018-02-25T19:12:51.996Z,50.41
2018-02-25T19:15:19.537Z,50.67
2018-02-25T19:17:47.098Z,50.65
2018-02-25T19:20:14.726Z,50.52
2018-02-25T19:22:42.300Z,50.86
2018-02-25T19:25:10.058Z,50.90
2018-02-25T19:27:38.334Z,50.83
2018-02-25T19:30:07.017Z,50.95
2018-02-25T19:32:34.867Z,50.81
2018-02-25T19:35:02.419Z,50.88
2018-02-25T19:37:35.494Z,51.01
2018-02-25T19:40:03.400Z,51.23
2018-02-25T19:42:31.595Z,51.22
2018-02-25T19:44:59.169Z,51.32
2018-02-25T19:47:26.787Z,51.68
2018-02-25T19:49:54.341Z,51.78
2018-02-25T19:52:21.871Z,51.93
2018-02-25T19:54:49.442Z,52.32
2018-02-25T19:57:16.975Z,52.66
2018-02-25T19:59:44.525Z,52.94
2018-02-25T20:02:12.102Z,53.75
2018-02-25T20:04:39.660Z,54.25
2018-02-25T20:07:07.289Z,54.57
2018-02-25T20:09:34.868Z,54.86
2018-02-25T20:12:02.397Z,55.26
2018-02-25T20:14:29.933Z,55.33
2018-02-25T20:16:57.495Z,55.78
2018-02-25T20:19:25.039Z,56.17
2018-02-25T20:21:52.683Z,56.71
2018-02-25T20:24:20.335Z,57.89
2018-02-25T20:26:48.099Z,59.58
2018-02-25T20:29:15.718Z,60.28
2018-02-25T20:31:43.291Z,60.76
2018-02-25T20:34:11.465Z,61.20
2018-02-25T20:36:40.074Z,61.71
2018-02-25T20:39:08.172Z,61.91
2018-02-25T20:41:35.747Z,62.97
2018-02-25T20:44:03.756Z,63.95
2018-02-25T20:46:31.388Z,63.94
2018-02-25T20:48:59.319Z,64.71
2018-02-25T20:51:26.856Z,65.12
2018-02-25T20:53:54.565Z,64.98
2018-02-25T20:56:22.205Z,63.66
2018-02-25T20:58:49.815Z,63.61
2018-02-25T21:01:17.437Z,64.10
2018-02-25T21:03:45.017Z,64.00
2018-02-25T21:06:12.612Z,60.66
2018-02-25T21:08:40.527Z,60.25
2018-02-25T21:11:08.133Z,59.91
2018-02-25T21:13:35.657Z,59.60
2018-02-25T21:16:03.242Z,59.11
2018-02-25T21:18:32.331Z,59.46
2018-02-25T21:21:00.372Z,60.98
2018-02-25T21:23:29.149Z,61.50
2018-02-25T21:25:56.827Z,61.42
2018-02-25T21:28:24.370Z,61.52
2018-02-25T21:30:57.862Z,61.56
2018-02-25T21:33:26.022Z,62.06
2018-02-25T21:35:53.602Z,62.36
2018-02-25T21:38:21.169Z,62.64
2018-02-25T21:40:48.820Z,62.54
2018-02-25T21:43:16.390Z,63.28
2018-02-25T21:45:43.952Z,63.54
2018-02-25T21:48:12.540Z,63.48
2018-02-25T21:50:40.101Z,63.48
2018-02-25T21:53:07.716Z,63.38
2018-02-25T21:55:35.285Z,63.96
2018-02-25T21:58:08.542Z,63.86
2018-02-25T22:00:41.562Z,63.92
2018-02-25T22:03:15.574Z,64.00
2018-02-25T22:05:43.126Z,64.09
2018-02-25T22:08:10.652Z,64.19
2018-02-25T22:10:38.350Z,64.34
2018-02-25T22:13:05.882Z,64.30
2018-02-25T22:15:33.442Z,64.40
2018-02-25T22:18:01.294Z,64.62
2018-02-25T22:20:29.138Z,64.83
2018-02-25T22:22:56.657Z,65.19
2018-02-25T22:25:24.327Z,65.29
2018-02-25T22:27:52.155Z,65.39
2018-02-25T22:30:19.709Z,65.49
2018-02-25T22:32:47.607Z,65.87
2018-02-25T22:35:15.144Z,65.94
2018-02-25T22:37:42.844Z,66.20
2018-02-25T22:40:10.672Z,66.69
2018-02-25T22:42:38.237Z,67.35
2018-02-25T22:45:06.081Z,67.71
2018-02-25T22:47:33.965Z,68.19
2018-02-25T22:50:01.910Z,69.23
2018-02-25T22:52:29.684Z,69.78
2018-02-25T22:54:57.266Z,70.06
2018-02-25T22:57:25.114Z,70.13
2018-02-25T22:59:52.674Z,70.02
2018-02-25T23:02:20.285Z,70.25
2018-02-25T23:04:48.100Z,70.24
2018-02-25T23:07:15.708Z,70.43
2018-02-25T23:09:43.286Z,70.47
2018-02-25T23:12:10.818Z,70.64
2018-02-25T23:14:38.343Z,70.70
2018-02-25T23:17:05.903Z,70.57
2018-02-25T23:19:33.776Z,70.55
2018-02-25T23:22:01.355Z,70.37
2018-02-25T23:24:28.924Z,70.05
2018-02-25T23:26:56.514Z,70.69
2018-02-25T23:29:24.085Z,70.08
2018-02-25T23:31:51.654Z,69.42
2018-02-25T23:34:19.192Z,69.19
2018-02-25T23:36:46.747Z,69.25
2018-02-25T23:39:14.566Z,69.15
2018-02-25T23:41:42.114Z,69.16
2018-02-25T23:44:09.650Z,68.97
2018-02-25T23:46:37.215Z,68.86
2018-02-25T23:49:04.780Z,69.08
2018-02-25T23:51:32.337Z,68.09
2018-02-25T23:53:59.897Z,68.14
2018-02-25T23:56:27.446Z,67.77
2018-02-25T23:58:54.974Z,67.42
